createdAt,value
2022-09-23T00:01:08.590Z,14.68
2022-09-23T00:03:37.492Z,14.68
2022-09-23T00:06:13.009Z,14.42
2022-09-23T00:08:40.926Z,14.20
2022-09-23T00:11:10.729Z,14.35
2022-09-23T00:13:39.244Z,14.10
2022-09-23T00:16:08.246Z,14.01
2022-09-23T00:18:35.457Z,14.10
2022-09-23T00:21:05.473Z,14.02
2022-09-23T00:23:32.904Z,13.78
2022-09-23T00:26:02.372Z,13.67
2022-09-23T00:28:30.004Z,13.88
2022-09-23T00:30:57.178Z,13.47
2022-09-23T00:33:24.116Z,13.50
2022-09-23T00:35:50.857Z,13.42
2022-09-23T00:38:17.732Z,13.49
2022-09-23T00:40:47.441Z,13.54
2022-09-23T00:43:17.803Z,13.40
2022-09-23T00:45:48.728Z,13.67
2022-09-23T00:48:20.986Z,13.61
2022-09-23T00:50:53.540Z,13.45
2022-09-23T00:53:23.852Z,13.16
2022-09-23T00:55:56.139Z,13.38
2022-09-23T00:58:31.211Z,13.38
2022-09-23T01:01:02.381Z,13.34
2022-09-23T01:03:30.947Z,13.26
2022-09-23T01:05:58.604Z,13.38
2022-09-23T01:08:27.420Z,13.35
2022-09-23T01:11:14.270Z,13.30
2022-09-23T01:14:05.566Z,13.28
2022-09-23T01:16:54.742Z,13.05
2022-09-23T01:19:36.416Z,13.22
2022-09-23T01:22:28.047Z,13.26
2022-09-23T01:25:35.944Z,13.17
2022-09-23T01:28:05.471Z,13.05
2022-09-23T01:30:50.987Z,13.00
2022-09-23T01:33:40.780Z,12.84
2022-09-23T01:36:10.442Z,12.98
2022-09-23T01:39:03.086Z,12.96
2022-09-23T01:42:02.458Z,12.99
2022-09-23T01:44:39.130Z,12.80
2022-09-23T01:47:14.239Z,12.85
2022-09-23T01:50:40.058Z,12.91
2022-09-23T01:53:14.512Z,12.68
2022-09-23T01:55:49.243Z,12.89
2022-09-23T01:58:24.622Z,12.91
2022-09-23T02:00:58.871Z,12.68
2022-09-23T02:03:48.033Z,12.96
2022-09-23T02:06:28.205Z,12.69
2022-09-23T02:09:03.587Z,13.07
2022-09-23T02:11:36.436Z,12.77
2022-09-23T02:14:15.537Z,12.72
2022-09-23T02:16:49.461Z,13.07
2022-09-23T02:19:48.648Z,13.10
2022-09-23T02:22:23.563Z,12.59
2022-09-23T02:24:50.752Z,12.87
2022-09-23T02:27:57.144Z,12.88
2022-09-23T02:30:32.113Z,12.57
2022-09-23T02:33:05.471Z,12.48
2022-09-23T02:35:55.917Z,12.42
2022-09-23T02:38:40.527Z,12.69
2022-09-23T02:41:28.563Z,12.71
2022-09-23T02:44:01.475Z,12.72
2022-09-23T02:46:32.783Z,12.49
2022-09-23T02:49:05.758Z,12.35
2022-09-23T02:51:38.772Z,12.20
2022-09-23T02:54:10.698Z,12.26
2022-09-23T02:56:37.557Z,12.41
2022-09-23T02:59:05.094Z,12.45
2022-09-23T03:01:47.647Z,12.15
2022-09-23T03:04:38.551Z,12.21
2022-09-23T03:07:10.562Z,12.08
2022-09-23T03:09:44.884Z,12.16
2022-09-23T03:12:32.385Z,12.31
2022-09-23T03:15:09.375Z,12.20
2022-09-23T03:17:50.741Z,12.33
2022-09-23T03:20:54.520Z,12.42
2022-09-23T03:23:38.459Z,12.23
2022-09-23T03:26:12.297Z,12.12
2022-09-23T03:28:43.234Z,12.38
2022-09-23T03:31:15.442Z,12.46
2022-09-23T03:33:47.218Z,12.38
2022-09-23T03:36:37.329Z,12.24
2022-09-23T03:39:14.047Z,12.36
2022-09-23T03:41:50.962Z,12.18
2022-09-23T03:44:19.695Z,12.25
2022-09-23T03:46:49.939Z,11.74
2022-09-23T03:49:27.655Z,11.81
2022-09-23T03:51:56.008Z,11.42
2022-09-23T03:54:22.773Z,11.62
2022-09-23T03:56:49.797Z,11.46
2022-09-23T03:59:17.306Z,11.53
2022-09-23T04:01:44.226Z,11.80
2022-09-23T04:04:11.621Z,11.88
2022-09-23T04:06:38.484Z,11.89
2022-09-23T04:09:05.249Z,11.55
2022-09-23T04:11:32.227Z,11.58
2022-09-23T04:13:58.995Z,11.15
2022-09-23T04:16:26.093Z,11.29
2022-09-23T04:18:53.184Z,11.46
2022-09-23T04:21:20.057Z,11.08
2022-09-23T04:23:46.786Z,11.30
2022-09-23T04:26:14.177Z,11.45
2022-09-23T04:28:41.058Z,11.45
2022-09-23T04:31:09.503Z,11.22
2022-09-23T04:33:37.676Z,11.44
2022-09-23T04:36:04.654Z,11.52
2022-09-23T04:38:31.611Z,11.52
2022-09-23T04:40:58.904Z,11.17
2022-09-23T04:43:25.811Z,11.10
2022-09-23T04:46:00.593Z,10.82
2022-09-23T04:48:28.325Z,10.78
2022-09-23T04:51:07.736Z,11.18
2022-09-23T04:53:39.144Z,11.63
2022-09-23T04:56:11.787Z,11.54
2022-09-23T04:58:39.974Z,11.63
2022-09-23T05:01:26.830Z,11.92
2022-09-23T05:04:01.514Z,12.07
2022-09-23T05:06:29.987Z,12.04
2022-09-23T05:08:59.247Z,11.93
2022-09-23T05:11:27.129Z,11.83
2022-09-23T05:13:54.606Z,11.77
2022-09-23T05:16:23.879Z,11.24
2022-09-23T05:18:51.800Z,11.16
2022-09-23T05:21:24.511Z,11.67
2022-09-23T05:23:58.930Z,12.05
2022-09-23T05:26:28.045Z,11.69
2022-09-23T05:28:55.489Z,11.66
2022-09-23T05:31:25.324Z,11.75
2022-09-23T05:33:57.497Z,11.89
2022-09-23T05:36:26.127Z,11.26
2022-09-23T05:38:54.769Z,11.78
2022-09-23T05:41:25.290Z,11.87
2022-09-23T05:43:53.519Z,12.17
2022-09-23T05:46:28.226Z,11.90
2022-09-23T05:49:01.192Z,12.48
2022-09-23T05:51:31.065Z,12.02
2022-09-23T05:54:00.077Z,12.18
2022-09-23T05:56:28.371Z,12.35
2022-09-23T05:58:57.209Z,12.42
2022-09-23T06:01:33.498Z,11.75
2022-09-23T06:04:02.157Z,12.52
2022-09-23T06:06:41.495Z,12.66
2022-09-23T06:09:13.488Z,12.42
2022-09-23T06:11:41.227Z,12.48
2022-09-23T06:14:14.866Z,12.68
2022-09-23T06:16:43.087Z,12.18
2022-09-23T06:19:10.481Z,12.55
2022-09-23T06:21:39.228Z,12.19
2022-09-23T06:24:08.109Z,12.19
2022-09-23T06:26:37.599Z,12.43
2022-09-23T06:29:10.208Z,13.09
2022-09-23T06:31:37.257Z,12.95
2022-09-23T06:34:11.698Z,12.57
2022-09-23T06:36:44.546Z,13.02
2022-09-23T06:39:13.959Z,13.18
2022-09-23T06:41:40.712Z,13.15
2022-09-23T06:44:12.273Z,13.07
2022-09-23T06:46:41.156Z,13.54
2022-09-23T06:49:08.317Z,13.50
2022-09-23T06:51:35.052Z,13.21
2022-09-23T06:54:02.085Z,12.97
2022-09-23T06:56:29.064Z,12.80
2022-09-23T06:58:56.030Z,13.27
2022-09-23T07:01:23.307Z,12.42
2022-09-23T07:03:50.525Z,12.85
2022-09-23T07:06:17.523Z,13.50
2022-09-23T07:08:47.042Z,13.80
2022-09-23T07:11:15.283Z,13.95
2022-09-23T07:13:42.844Z,14.07
2022-09-23T07:16:11.006Z,14.64
2022-09-23T07:18:38.835Z,14.61
2022-09-23T07:21:18.060Z,14.45
2022-09-23T07:23:47.377Z,14.58
2022-09-23T07:26:15.212Z,14.84
2022-09-23T07:28:42.122Z,14.83
2022-09-23T07:31:14.754Z,14.69
2022-09-23T07:33:44.210Z,14.72
2022-09-23T07:36:18.071Z,15.00
2022-09-23T07:38:46.315Z,15.18
2022-09-23T07:41:15.888Z,15.20
2022-09-23T07:43:44.184Z,15.30
2022-09-23T07:46:14.473Z,15.55
2022-09-23T07:48:41.329Z,15.75
2022-09-23T07:51:09.220Z,15.81
2022-09-23T07:53:36.984Z,16.39
2022-09-23T07:56:07.349Z,15.62
2022-09-23T07:58:35.073Z,15.63
2022-09-23T08:01:06.497Z,15.79
2022-09-23T08:03:33.601Z,16.23
2022-09-23T08:06:07.878Z,16.26
2022-09-23T08:08:39.372Z,16.21
2022-09-23T08:11:10.322Z,16.63
2022-09-23T08:13:37.445Z,16.30
2022-09-23T08:16:04.625Z,16.02
2022-09-23T08:18:31.537Z,15.76
2022-09-23T08:20:58.315Z,16.01
2022-09-23T08:23:25.804Z,15.67
2022-09-23T08:26:02.888Z,15.10
2022-09-23T08:28:30.561Z,16.06
2022-09-23T08:30:57.540Z,15.79
2022-09-23T08:33:24.564Z,15.97
2022-09-23T08:35:52.270Z,15.88
2022-09-23T08:38:20.630Z,16.53
2022-09-23T08:40:50.077Z,16.83
2022-09-23T08:43:32.197Z,17.13
2022-09-23T08:46:04.904Z,16.87
2022-09-23T08:48:46.714Z,17.45
2022-09-23T08:51:26.062Z,17.41
2022-09-23T08:53:53.178Z,16.75
2022-09-23T08:56:22.899Z,17.09
2022-09-23T08:59:17.332Z,17.40
2022-09-23T09:01:59.378Z,17.05
2022-09-23T09:04:37.523Z,16.89
2022-09-23T09:07:31.834Z,17.16
2022-09-23T09:10:04.551Z,17.04
2022-09-23T09:12:40.987Z,17.69
2022-09-23T09:15:14.643Z,18.31
2022-09-23T09:18:01.344Z,18.42
2022-09-23T09:20:28.129Z,18.94
2022-09-23T09:23:02.338Z,19.05
2022-09-23T09:25:48.528Z,19.06
2022-09-23T09:28:24.669Z,19.27
2022-09-23T09:30:56.505Z,19.44
2022-09-23T09:33:51.572Z,19.34
2022-09-23T09:36:30.834Z,19.80
2022-09-23T09:39:00.970Z,19.51
2022-09-23T09:41:31.572Z,19.68
2022-09-23T09:44:03.507Z,19.66
2022-09-23T09:46:46.167Z,19.00
2022-09-23T09:49:23.289Z,18.56
2022-09-23T09:52:22.336Z,19.33
2022-09-23T09:54:50.970Z,18.89
2022-09-23T09:57:35.255Z,18.51
2022-09-23T10:00:25.242Z,18.71
2022-09-23T10:03:30.352Z,19.78
2022-09-23T10:05:57.753Z,20.14
2022-09-23T10:08:35.042Z,19.79
2022-09-23T10:11:16.678Z,19.74
2022-09-23T10:14:15.980Z,19.60
2022-09-23T10:16:43.264Z,19.72
2022-09-23T10:19:26.117Z,20.08
2022-09-23T10:21:59.906Z,20.01
2022-09-23T10:24:30.573Z,19.13
2022-09-23T10:27:14.011Z,19.41
2022-09-23T10:29:49.404Z,19.97
2022-09-23T10:32:27.849Z,20.41
2022-09-23T10:35:14.981Z,20.45
2022-09-23T10:37:50.048Z,20.11
2022-09-23T10:40:44.812Z,20.72
2022-09-23T10:44:09.168Z,21.21
2022-09-23T10:46:41.236Z,20.77
2022-09-23T10:49:52.380Z,20.13
2022-09-23T10:52:56.814Z,21.04
2022-09-23T10:55:41.592Z,21.58
2022-09-23T10:58:29.964Z,20.66
2022-09-23T11:01:13.469Z,20.45
2022-09-23T11:04:07.891Z,21.05
2022-09-23T11:07:07.326Z,20.77
2022-09-23T11:09:46.658Z,20.55
2022-09-23T11:12:25.424Z,20.56
2022-09-23T11:15:20.919Z,20.86
2022-09-23T11:18:09.063Z,21.53
2022-09-23T11:21:26.792Z,21.41
2022-09-23T11:23:54.293Z,21.08
2022-09-23T11:26:34.125Z,21.21
2022-09-23T11:29:09.884Z,21.51
2022-09-23T11:31:59.430Z,21.34
2022-09-23T11:34:36.949Z,21.23
2022-09-23T11:37:14.064Z,21.88
2022-09-23T11:39:50.492Z,20.92
2022-09-23T11:42:28.849Z,20.80
2022-09-23T11:45:15.000Z,21.08
2022-09-23T11:47:59.959Z,21.38
2022-09-23T11:50:33.235Z,21.75
2022-09-23T11:53:26.309Z,21.29
2022-09-23T11:56:04.116Z,22.55
2022-09-23T11:58:51.444Z,22.79
2022-09-23T12:01:37.241Z,22.60
2022-09-23T12:04:21.195Z,23.12
2022-09-23T12:07:11.588Z,22.24
2022-09-23T12:09:57.848Z,23.03
2022-09-23T12:12:50.080Z,23.39
2022-09-23T12:15:45.280Z,22.37
2022-09-23T12:18:42.938Z,21.59
2022-09-23T12:21:45.873Z,21.44
2022-09-23T12:24:21.358Z,21.17
2022-09-23T12:26:57.294Z,20.58
2022-09-23T12:31:59.786Z,20.08
2022-09-23T12:34:49.116Z,20.27
2022-09-23T12:37:38.087Z,20.05
2022-09-23T12:40:43.480Z,19.88
2022-09-23T12:43:34.746Z,20.37
2022-09-23T12:46:25.739Z,20.29
2022-09-23T12:48:59.201Z,20.53
2022-09-23T12:51:35.675Z,21.77
2022-09-23T12:54:05.631Z,22.35
2022-09-23T12:56:38.694Z,22.00
2022-09-23T12:59:32.763Z,22.34
2022-09-23T13:02:25.116Z,21.81
2022-09-23T13:05:16.273Z,22.73
2022-09-23T13:07:47.660Z,22.78
2022-09-23T13:10:20.988Z,22.48
2022-09-23T13:12:48.265Z,22.96
2022-09-23T13:15:36.431Z,23.59
2022-09-23T13:18:21.677Z,23.46
2022-09-23T13:20:50.452Z,23.47
2022-09-23T13:23:21.389Z,22.73
2022-09-23T13:25:51.733Z,23.37
2022-09-23T13:28:56.811Z,23.73
2022-09-23T13:31:24.069Z,23.30
2022-09-23T13:33:59.667Z,23.55
2022-09-23T13:36:27.027Z,23.61
2022-09-23T13:38:53.801Z,24.37
2022-09-23T13:41:25.585Z,24.31
2022-09-23T13:43:58.809Z,24.03
2022-09-23T13:46:30.026Z,23.64
2022-09-23T13:48:57.107Z,24.34
2022-09-23T13:51:30.520Z,24.22
2022-09-23T13:54:00.839Z,24.74
2022-09-23T13:56:32.988Z,24.44
2022-09-23T13:59:38.687Z,23.25
2022-09-23T14:02:07.044Z,23.08
2022-09-23T14:04:33.799Z,23.51
2022-09-23T14:07:01.966Z,23.76
2022-09-23T14:09:30.428Z,23.68
2022-09-23T14:12:00.372Z,23.64
2022-09-23T14:14:29.392Z,23.27
2022-09-23T14:16:57.865Z,22.53
2022-09-23T14:19:25.937Z,22.17
2022-09-23T14:21:54.496Z,22.93
2022-09-23T14:24:32.168Z,23.85
2022-09-23T14:27:04.115Z,24.31
2022-09-23T14:29:33.551Z,24.34
2022-09-23T14:32:06.812Z,24.85
2022-09-23T14:35:03.521Z,24.01
2022-09-23T14:37:54.974Z,23.33
2022-09-23T14:40:25.014Z,22.57
2022-09-23T14:43:02.639Z,22.11
2022-09-23T14:45:36.264Z,21.81
2022-09-23T14:48:25.435Z,22.54
2022-09-23T14:51:01.444Z,22.72
2022-09-23T14:53:28.212Z,22.73
2022-09-23T14:56:06.807Z,22.69
2022-09-23T14:58:52.832Z,22.81
2022-09-23T15:01:32.373Z,22.90
2022-09-23T15:04:00.498Z,23.20
2022-09-23T15:06:27.683Z,22.70
2022-09-23T15:08:55.947Z,22.64
2022-09-23T15:11:23.067Z,22.71
2022-09-23T15:13:52.769Z,22.87
2022-09-23T15:16:27.326Z,23.10
2022-09-23T15:18:57.740Z,22.86
2022-09-23T15:21:25.877Z,22.44
2022-09-23T15:23:57.514Z,22.18
2022-09-23T15:26:47.237Z,22.51
2022-09-23T15:29:14.232Z,22.48
2022-09-23T15:31:40.968Z,22.45
2022-09-23T15:34:10.921Z,22.39
2022-09-23T15:36:38.685Z,22.17
2022-09-23T15:39:08.672Z,21.94
2022-09-23T15:41:35.474Z,21.82
2022-09-23T15:44:29.921Z,21.11
2022-09-23T15:47:01.124Z,20.95
2022-09-23T15:49:36.253Z,21.06
2022-09-23T15:52:05.379Z,20.67
2022-09-23T15:54:32.578Z,20.88
2022-09-23T15:57:01.145Z,20.71
2022-09-23T15:59:29.829Z,20.54
2022-09-23T16:01:59.193Z,20.81
2022-09-23T16:04:26.168Z,20.59
2022-09-23T16:06:53.446Z,20.31
2022-09-23T16:09:20.183Z,20.72
2022-09-23T16:11:49.287Z,20.75
2022-09-23T16:14:18.267Z,20.63
2022-09-23T16:16:47.865Z,20.47
2022-09-23T16:19:15.714Z,20.24
2022-09-23T16:21:43.501Z,20.43
2022-09-23T16:24:18.853Z,19.96
2022-09-23T16:26:48.184Z,20.04
2022-09-23T16:29:15.584Z,19.98
2022-09-23T16:31:42.796Z,20.35
2022-09-23T16:34:09.939Z,20.45
2022-09-23T16:36:41.925Z,20.17
2022-09-23T16:39:12.418Z,20.49
2022-09-23T16:41:40.158Z,20.27
2022-09-23T16:44:08.281Z,20.02
2022-09-23T16:46:35.213Z,19.86
2022-09-23T16:49:02.132Z,20.15
2022-09-23T16:51:38.589Z,20.13
2022-09-23T16:54:11.268Z,20.16
2022-09-23T16:56:44.389Z,20.01
2022-09-23T16:59:16.613Z,19.23
2022-09-23T17:02:02.249Z,19.14
2022-09-23T17:04:29.283Z,19.45
2022-09-23T17:06:56.504Z,19.51
2022-09-23T17:09:26.104Z,19.18
2022-09-23T17:12:19.957Z,19.28
2022-09-23T17:14:46.918Z,19.21
2022-09-23T17:17:13.631Z,19.08
2022-09-23T17:19:41.414Z,18.90
2022-09-23T17:22:08.195Z,18.66
2022-09-23T17:24:35.131Z,18.58
2022-09-23T17:27:01.914Z,18.61
2022-09-23T17:29:29.174Z,18.38
2022-09-23T17:31:56.183Z,18.31
2022-09-23T17:34:24.119Z,18.42
2022-09-23T17:36:50.974Z,18.04
2022-09-23T17:39:17.901Z,18.51
2022-09-23T17:41:45.531Z,18.16
2022-09-23T17:44:12.630Z,18.30
2022-09-23T17:46:39.382Z,18.10
2022-09-23T17:49:06.794Z,18.34
2022-09-23T17:51:33.657Z,18.23
2022-09-23T17:54:00.445Z,18.21
2022-09-23T17:56:29.870Z,18.08
2022-09-23T17:59:01.635Z,18.47
2022-09-23T18:01:29.254Z,18.14
2022-09-23T18:03:57.206Z,17.95
2022-09-23T18:06:26.786Z,17.88
2022-09-23T18:08:55.971Z,17.73
2022-09-23T18:11:28.416Z,17.72
2022-09-23T18:13:59.454Z,17.79
2022-09-23T18:16:29.239Z,17.77
2022-09-23T18:18:59.289Z,17.97
2022-09-23T18:21:33.116Z,17.46
2022-09-23T18:24:21.618Z,17.46
2022-09-23T18:26:49.807Z,16.79
2022-09-23T18:29:17.229Z,16.86
2022-09-23T18:31:45.057Z,16.55
2022-09-23T18:34:14.159Z,17.12
2022-09-23T18:36:41.402Z,16.79
2022-09-23T18:39:08.273Z,17.17
2022-09-23T18:41:35.659Z,17.21
2022-09-23T18:44:03.871Z,17.52
2022-09-23T18:46:31.479Z,17.27
2022-09-23T18:49:17.617Z,17.00
2022-09-23T18:51:56.071Z,17.12
2022-09-23T18:54:25.326Z,17.00
2022-09-23T18:56:52.844Z,16.98
2022-09-23T18:59:29.453Z,17.34
2022-09-23T19:01:57.324Z,17.43
2022-09-23T19:04:25.638Z,17.54
2022-09-23T19:06:54.754Z,17.65
2022-09-23T19:09:21.442Z,17.54
2022-09-23T19:11:52.284Z,17.10
2022-09-23T19:14:19.374Z,16.96
2022-09-23T19:16:49.011Z,16.93
2022-09-23T19:19:15.995Z,17.15
2022-09-23T19:21:42.725Z,16.95
2022-09-23T19:24:14.707Z,16.69
2022-09-23T19:26:42.012Z,16.85
2022-09-23T19:29:14.403Z,16.90
2022-09-23T19:31:42.107Z,17.10
2022-09-23T19:34:17.723Z,16.59
2022-09-23T19:36:47.112Z,16.83
2022-09-23T19:39:22.668Z,17.11
2022-09-23T19:41:51.320Z,17.24
2022-09-23T19:44:20.014Z,17.08
2022-09-23T19:46:53.386Z,17.08
2022-09-23T19:49:24.316Z,16.80
2022-09-23T19:51:51.192Z,16.59
2022-09-23T19:54:20.633Z,16.86
2022-09-23T19:56:49.973Z,16.88
2022-09-23T19:59:19.049Z,15.92
2022-09-23T20:01:47.510Z,16.58
2022-09-23T20:04:16.009Z,16.87
2022-09-23T20:06:43.215Z,15.85
2022-09-23T20:09:10.223Z,16.35
2022-09-23T20:11:37.219Z,16.57
2022-09-23T20:14:06.939Z,15.87
2022-09-23T20:16:36.858Z,16.35
2022-09-23T20:19:05.621Z,16.22
2022-09-23T20:21:33.727Z,16.14
2022-09-23T20:24:07.728Z,16.22
2022-09-23T20:26:53.505Z,16.11
2022-09-23T20:29:20.583Z,16.24
2022-09-23T20:31:47.708Z,16.08
2022-09-23T20:34:15.141Z,15.89
2022-09-23T20:36:42.572Z,15.76
2022-09-23T20:39:10.376Z,15.93
2022-09-23T20:41:39.266Z,15.96
2022-09-23T20:44:10.460Z,15.60
2022-09-23T20:46:37.888Z,15.39
2022-09-23T20:49:04.975Z,15.38
2022-09-23T20:51:34.987Z,15.08
2022-09-23T20:54:01.921Z,15.09
2022-09-23T20:56:29.771Z,15.14
2022-09-23T20:59:04.550Z,15.21
2022-09-23T21:01:36.579Z,15.04
2022-09-23T21:04:06.947Z,15.17
2022-09-23T21:06:35.202Z,14.71
2022-09-23T21:09:02.339Z,14.98
2022-09-23T21:11:30.068Z,14.98
2022-09-23T21:13:58.754Z,15.16
2022-09-23T21:16:25.872Z,14.76
2022-09-23T21:18:52.984Z,14.48
2022-09-23T21:21:22.198Z,14.78
2022-09-23T21:23:49.549Z,14.84
2022-09-23T21:26:23.390Z,14.88
2022-09-23T21:28:59.616Z,14.11
2022-09-23T21:31:31.267Z,14.71
2022-09-23T21:34:02.875Z,14.89
2022-09-23T21:36:32.720Z,14.82
2022-09-23T21:39:01.718Z,14.65
2022-09-23T21:41:28.719Z,14.80
2022-09-23T21:43:56.357Z,14.73
2022-09-23T21:46:24.485Z,14.82
2022-09-23T21:48:54.940Z,14.81
2022-09-23T21:51:25.592Z,14.59
2022-09-23T21:53:54.953Z,14.67
2022-09-23T21:56:23.857Z,14.39
2022-09-23T21:58:52.397Z,14.66
2022-09-23T22:01:24.978Z,14.67
2022-09-23T22:03:54.651Z,14.41
2022-09-23T22:06:23.758Z,14.21
2022-09-23T22:08:53.638Z,14.32
2022-09-23T22:11:41.583Z,14.46
2022-09-23T22:14:12.596Z,14.41
2022-09-23T22:16:40.258Z,14.19
2022-09-23T22:19:07.611Z,14.23
2022-09-23T22:21:38.114Z,14.28
2022-09-23T22:24:07.366Z,14.13
2022-09-23T22:26:43.584Z,14.41
2022-09-23T22:29:33.570Z,14.37
2022-09-23T22:32:20.446Z,14.53
2022-09-23T22:34:52.547Z,14.27
2022-09-23T22:37:25.793Z,14.28
2022-09-23T22:39:53.890Z,14.11
2022-09-23T22:42:23.597Z,14.19
2022-09-23T22:44:51.210Z,14.22
2022-09-23T22:47:19.884Z,14.28
2022-09-23T22:49:47.334Z,14.28
2022-09-23T22:52:16.257Z,14.15
2022-09-23T22:54:43.304Z,14.24
2022-09-23T22:57:10.375Z,13.71
2022-09-23T22:59:37.882Z,13.88
2022-09-23T23:02:07.125Z,13.67
2022-09-23T23:04:34.120Z,13.59
2022-09-23T23:07:00.858Z,13.70
2022-09-23T23:09:27.560Z,13.71
2022-09-23T23:11:54.368Z,13.81
2022-09-23T23:14:21.490Z,13.71
2022-09-23T23:16:48.383Z,13.84
2022-09-23T23:19:17.140Z,13.84
2022-09-23T23:21:45.428Z,13.33
2022-09-23T23:24:23.039Z,13.75
2022-09-23T23:26:51.270Z,13.81
2022-09-23T23:29:20.617Z,13.68
2022-09-23T23:31:48.345Z,13.65
2022-09-23T23:34:20.345Z,13.61
2022-09-23T23:36:54.910Z,13.75
2022-09-23T23:39:24.251Z,13.77
2022-09-23T23:41:55.492Z,13.50
2022-09-23T23:44:24.635Z,13.27
2022-09-23T23:46:52.258Z,13.24
2022-09-23T23:49:19.627Z,12.91
2022-09-23T23:51:46.535Z,12.95
2022-09-23T23:54:15.251Z,13.19
2022-09-23T23:56:42.552Z,13.12
2022-09-23T23:59:09.696Z,13.17
